createdAt,value
2022-10-26T00:00:50.066Z,11.15
2022-10-26T00:03:17.432Z,11.07
2022-10-26T00:05:45.071Z,11.06
2022-10-26T00:08:11.618Z,11.14
2022-10-26T00:10:39.261Z,11.07
2022-10-26T00:13:10.196Z,11.17
2022-10-26T00:15:40.474Z,11.16
2022-10-26T00:18:09.232Z,11.07
2022-10-26T00:20:36.080Z,11.03
2022-10-26T00:23:03.213Z,11.06
2022-10-26T00:25:30.289Z,11.06
2022-10-26T00:27:57.240Z,11.07
2022-10-26T00:30:24.077Z,11.13
2022-10-26T00:32:50.834Z,11.13
2022-10-26T00:35:23.292Z,10.97
2022-10-26T00:37:56.425Z,10.93
2022-10-26T00:40:27.826Z,10.89
2022-10-26T00:42:54.459Z,10.94
2022-10-26T00:45:29.781Z,10.90
2022-10-26T00:48:10.524Z,10.87
2022-10-26T00:50:42.109Z,10.86
2022-10-26T00:53:10.455Z,10.93
2022-10-26T00:55:51.050Z,10.89
2022-10-26T00:58:19.044Z,10.81
2022-10-26T01:00:46.267Z,11.01
2022-10-26T01:03:13.139Z,10.89
2022-10-26T01:05:42.474Z,10.95
2022-10-26T01:08:09.776Z,10.83
2022-10-26T01:10:39.052Z,10.88
2022-10-26T01:13:06.569Z,10.78
2022-10-26T01:16:00.847Z,10.81
2022-10-26T01:19:03.006Z,10.94
2022-10-26T01:22:08.242Z,10.74
2022-10-26T01:24:58.191Z,10.83
2022-10-26T01:27:43.455Z,10.67
2022-10-26T01:30:10.059Z,10.84
2022-10-26T01:33:06.675Z,10.70
2022-10-26T01:35:41.763Z,10.75
2022-10-26T01:38:34.742Z,10.88
2022-10-26T01:41:09.365Z,10.91
2022-10-26T01:43:40.552Z,10.92
2022-10-26T01:46:10.220Z,10.94
2022-10-26T01:48:38.201Z,10.83
2022-10-26T01:51:07.431Z,10.88
2022-10-26T01:53:34.495Z,10.93
2022-10-26T01:56:02.596Z,11.04
2022-10-26T01:59:03.224Z,11.01
2022-10-26T02:01:58.071Z,10.97
2022-10-26T02:04:34.103Z,11.04
2022-10-26T02:07:30.514Z,10.95
2022-10-26T02:10:07.860Z,10.95
2022-10-26T02:13:10.337Z,10.95
2022-10-26T02:15:53.056Z,11.06
2022-10-26T02:18:42.491Z,11.04
2022-10-26T02:21:21.210Z,11.03
2022-10-26T02:23:51.885Z,10.98
2022-10-26T02:26:24.709Z,11.00
2022-10-26T02:28:56.488Z,11.05
2022-10-26T02:31:25.796Z,11.10
2022-10-26T02:33:54.299Z,11.14
2022-10-26T02:36:27.083Z,11.05
2022-10-26T02:38:54.711Z,11.01
2022-10-26T02:41:25.847Z,10.98
2022-10-26T02:44:00.233Z,11.00
2022-10-26T02:46:28.227Z,10.96
2022-10-26T02:48:56.597Z,11.02
2022-10-26T02:51:55.976Z,11.17
2022-10-26T02:55:07.589Z,11.02
2022-10-26T02:57:40.751Z,11.11
2022-10-26T03:00:14.114Z,11.10
2022-10-26T03:02:48.371Z,11.22
2022-10-26T03:05:24.538Z,11.15
2022-10-26T03:07:51.933Z,11.08
2022-10-26T03:10:19.018Z,11.16
2022-10-26T03:12:45.794Z,10.91
2022-10-26T03:15:12.697Z,10.89
2022-10-26T03:17:39.613Z,11.02
2022-10-26T03:20:06.835Z,10.89
2022-10-26T03:22:33.406Z,10.96
2022-10-26T03:25:00.148Z,10.89
2022-10-26T03:27:27.279Z,10.91
2022-10-26T03:29:54.205Z,10.99
2022-10-26T03:32:20.743Z,11.02
2022-10-26T03:34:47.294Z,11.06
2022-10-26T03:37:13.934Z,11.07
2022-10-26T03:39:40.485Z,10.97
2022-10-26T03:42:07.087Z,11.04
2022-10-26T03:44:33.729Z,11.07
2022-10-26T03:47:00.274Z,11.12
2022-10-26T03:49:26.819Z,11.12
2022-10-26T03:51:53.479Z,11.05
2022-10-26T03:54:20.044Z,11.09
2022-10-26T03:56:48.390Z,10.90
2022-10-26T03:59:16.778Z,11.03
2022-10-26T04:01:43.395Z,10.94
2022-10-26T04:04:10.001Z,11.17
2022-10-26T04:06:36.723Z,11.16
2022-10-26T04:09:04.004Z,11.07
2022-10-26T04:11:30.631Z,10.98
2022-10-26T04:13:59.643Z,11.17
2022-10-26T04:16:30.982Z,11.07
2022-10-26T04:19:00.859Z,11.05
2022-10-26T04:21:27.622Z,11.24
2022-10-26T04:23:54.195Z,11.19
2022-10-26T04:26:20.802Z,11.19
2022-10-26T04:28:47.423Z,11.33
2022-10-26T04:31:13.995Z,11.48
2022-10-26T04:33:40.630Z,11.49
2022-10-26T04:36:07.885Z,11.24
2022-10-26T04:38:34.585Z,11.29
2022-10-26T04:41:01.265Z,11.32
2022-10-26T04:43:27.957Z,11.39
2022-10-26T04:45:57.831Z,11.53
2022-10-26T04:50:59.723Z,11.60
2022-10-26T04:53:27.346Z,11.51
2022-10-26T04:56:01.591Z,11.53
2022-10-26T04:58:28.768Z,11.37
2022-10-26T05:00:55.474Z,11.38
2022-10-26T05:03:22.340Z,11.51
2022-10-26T05:05:48.907Z,11.50
2022-10-26T05:08:15.957Z,11.54
2022-10-26T05:10:42.747Z,11.45
2022-10-26T05:13:09.847Z,11.53
2022-10-26T05:15:36.564Z,11.39
2022-10-26T05:18:05.642Z,11.46
2022-10-26T05:20:34.669Z,11.58
2022-10-26T05:23:06.628Z,11.57
2022-10-26T05:25:36.585Z,11.47
2022-10-26T05:28:06.440Z,11.57
2022-10-26T05:30:33.248Z,11.60
2022-10-26T05:33:03.296Z,11.57
2022-10-26T05:35:30.024Z,11.54
2022-10-26T05:37:56.563Z,11.57
2022-10-26T05:40:23.770Z,11.58
2022-10-26T05:45:50.401Z,11.90
2022-10-26T05:48:17.459Z,12.18
2022-10-26T05:50:45.383Z,12.22
2022-10-26T05:53:12.053Z,12.29
2022-10-26T05:55:39.117Z,12.40
2022-10-26T05:58:13.474Z,12.41
2022-10-26T06:01:17.328Z,12.40
2022-10-26T06:04:11.186Z,12.38
2022-10-26T06:06:45.137Z,12.38
2022-10-26T06:09:13.577Z,12.49
2022-10-26T06:11:41.029Z,12.62
2022-10-26T06:14:09.768Z,12.67
2022-10-26T06:17:07.377Z,12.71
2022-10-26T06:19:49.102Z,12.74
2022-10-26T06:22:27.715Z,12.76
2022-10-26T06:25:22.606Z,12.80
2022-10-26T06:28:05.210Z,12.76
2022-10-26T06:30:32.362Z,12.76
2022-10-26T06:33:06.256Z,12.86
2022-10-26T06:35:56.507Z,12.93
2022-10-26T06:38:24.633Z,12.97
2022-10-26T06:40:53.037Z,12.93
2022-10-26T06:43:32.779Z,12.95
2022-10-26T06:46:14.643Z,13.08
2022-10-26T06:49:09.519Z,13.10
2022-10-26T06:51:47.082Z,13.14
2022-10-26T06:54:17.956Z,12.90
2022-10-26T06:56:46.024Z,13.09
2022-10-26T06:59:28.858Z,13.09
2022-10-26T07:01:55.514Z,13.07
2022-10-26T07:04:22.245Z,13.10
2022-10-26T07:06:48.811Z,13.25
2022-10-26T07:09:15.388Z,13.29
2022-10-26T07:11:41.911Z,13.03
2022-10-26T07:14:08.589Z,12.99
2022-10-26T07:16:35.350Z,13.08
2022-10-26T07:19:01.938Z,12.93
2022-10-26T07:21:28.504Z,13.01
2022-10-26T07:23:57.077Z,13.02
2022-10-26T07:26:25.561Z,12.88
2022-10-26T07:28:52.171Z,13.00
2022-10-26T07:31:18.696Z,12.89
2022-10-26T07:33:45.684Z,13.00
2022-10-26T07:36:12.571Z,12.96
2022-10-26T07:38:39.639Z,13.05
2022-10-26T07:41:06.455Z,13.03
2022-10-26T07:43:33.019Z,13.15
2022-10-26T07:45:59.685Z,13.18
2022-10-26T07:48:26.245Z,13.30
2022-10-26T07:50:52.863Z,13.40
2022-10-26T07:53:21.935Z,13.18
2022-10-26T07:55:57.872Z,13.36
2022-10-26T07:58:26.157Z,13.43
2022-10-26T08:00:53.778Z,13.34
2022-10-26T08:03:21.283Z,13.54
2022-10-26T08:05:51.209Z,13.59
2022-10-26T08:08:20.864Z,13.72
2022-10-26T08:10:47.853Z,13.73
2022-10-26T08:13:15.494Z,13.80
2022-10-26T08:15:42.081Z,13.87
2022-10-26T08:18:08.719Z,13.89
2022-10-26T08:20:35.722Z,13.87
2022-10-26T08:23:06.070Z,13.78
2022-10-26T08:25:33.412Z,13.95
2022-10-26T08:28:04.336Z,13.95
2022-10-26T08:33:05.236Z,14.16
2022-10-26T08:35:33.106Z,14.03
2022-10-26T08:38:04.917Z,14.15
2022-10-26T08:40:40.866Z,14.39
2022-10-26T08:43:20.219Z,14.44
2022-10-26T08:46:20.473Z,14.43
2022-10-26T08:49:05.545Z,14.60
2022-10-26T08:51:37.450Z,14.77
2022-10-26T08:54:05.775Z,14.77
2022-10-26T08:56:40.931Z,14.80
2022-10-26T08:59:32.493Z,14.98
2022-10-26T09:02:01.804Z,15.12
2022-10-26T09:04:31.769Z,15.14
2022-10-26T09:07:40.104Z,15.07
2022-10-26T09:10:34.045Z,15.30
2022-10-26T09:13:42.777Z,15.33
2022-10-26T09:16:38.157Z,15.15
2022-10-26T09:19:20.033Z,15.51
2022-10-26T09:21:56.479Z,15.23
2022-10-26T09:24:32.279Z,15.39
2022-10-26T09:27:12.296Z,15.68
2022-10-26T09:29:42.134Z,15.85
2022-10-26T09:32:19.954Z,16.08
2022-10-26T09:34:52.319Z,16.09
2022-10-26T09:37:29.648Z,16.08
2022-10-26T09:40:11.330Z,16.19
2022-10-26T09:42:56.204Z,16.34
2022-10-26T09:45:37.756Z,16.34
2022-10-26T09:48:35.625Z,16.36
2022-10-26T09:51:04.619Z,16.70
2022-10-26T09:53:32.375Z,16.72
2022-10-26T09:56:05.647Z,16.93
2022-10-26T09:58:37.777Z,16.93
2022-10-26T10:01:04.664Z,16.98
2022-10-26T10:03:32.721Z,17.11
2022-10-26T10:06:20.199Z,17.40
2022-10-26T10:09:17.486Z,17.68
2022-10-26T10:11:58.866Z,17.79
2022-10-26T10:14:34.792Z,17.62
2022-10-26T10:19:47.014Z,17.72
2022-10-26T10:22:18.603Z,17.63
2022-10-26T10:24:56.345Z,17.81
2022-10-26T10:27:23.968Z,17.98
2022-10-26T10:29:51.826Z,18.13
2022-10-26T10:32:24.119Z,18.18
2022-10-26T10:34:52.768Z,18.20
2022-10-26T10:37:25.523Z,18.30
2022-10-26T10:40:31.439Z,18.41
2022-10-26T10:43:14.473Z,18.59
2022-10-26T10:45:41.346Z,18.70
2022-10-26T10:48:23.413Z,18.85
2022-10-26T10:51:12.292Z,18.75
2022-10-26T10:53:48.397Z,18.83
2022-10-26T10:56:35.413Z,18.94
2022-10-26T10:59:21.184Z,18.98
2022-10-26T11:02:34.740Z,19.23
2022-10-26T11:05:24.749Z,19.17
2022-10-26T11:08:09.724Z,19.43
2022-10-26T11:10:50.284Z,19.55
2022-10-26T11:13:25.911Z,19.76
2022-10-26T11:15:59.400Z,19.98
2022-10-26T11:18:41.904Z,20.08
2022-10-26T11:21:30.451Z,20.02
2022-10-26T11:24:13.455Z,20.24
2022-10-26T11:26:45.960Z,20.29
2022-10-26T11:29:35.063Z,20.21
2022-10-26T11:32:13.696Z,20.60
2022-10-26T11:35:07.497Z,20.62
2022-10-26T11:37:53.178Z,20.86
2022-10-26T11:44:05.555Z,20.89
2022-10-26T11:46:43.023Z,21.01
2022-10-26T11:49:28.895Z,21.04
2022-10-26T11:52:18.052Z,21.36
2022-10-26T11:54:52.152Z,21.37
2022-10-26T11:57:20.475Z,21.21
2022-10-26T12:00:08.187Z,21.21
2022-10-26T12:02:43.992Z,21.16
2022-10-26T12:05:19.229Z,20.87
2022-10-26T12:08:11.719Z,20.77
2022-10-26T12:10:42.590Z,20.83
2022-10-26T12:13:40.922Z,20.74
2022-10-26T12:16:34.131Z,20.77
2022-10-26T12:19:15.417Z,21.09
2022-10-26T12:21:44.118Z,21.35
2022-10-26T12:24:42.875Z,21.60
2022-10-26T12:27:52.250Z,21.65
2022-10-26T12:30:18.745Z,21.80
2022-10-26T12:32:45.432Z,21.86
2022-10-26T12:35:33.706Z,21.94
2022-10-26T12:38:02.550Z,21.99
2022-10-26T12:40:45.275Z,22.07
2022-10-26T12:43:13.911Z,21.95
2022-10-26T12:45:45.697Z,21.91
2022-10-26T12:48:48.655Z,21.93
2022-10-26T12:51:26.837Z,21.88
2022-10-26T12:53:59.326Z,21.83
2022-10-26T12:56:54.328Z,22.02
2022-10-26T12:59:49.990Z,21.78
2022-10-26T13:02:30.158Z,21.93
2022-10-26T13:05:30.539Z,22.15
2022-10-26T13:08:28.452Z,22.21
2022-10-26T13:11:04.977Z,22.42
2022-10-26T13:13:33.935Z,22.31
2022-10-26T13:16:02.076Z,22.23
2022-10-26T13:18:29.962Z,22.35
2022-10-26T13:21:13.437Z,22.34
2022-10-26T13:23:43.061Z,22.30
2022-10-26T13:26:21.282Z,22.07
2022-10-26T13:28:54.139Z,22.16
2022-10-26T13:31:41.556Z,21.99
2022-10-26T13:34:22.909Z,21.70
2022-10-26T13:37:11.932Z,21.50
2022-10-26T13:39:42.862Z,21.61
2022-10-26T13:42:19.620Z,21.58
2022-10-26T13:45:10.237Z,21.60
2022-10-26T13:47:48.710Z,21.65
2022-10-26T13:50:24.765Z,21.53
2022-10-26T13:53:13.496Z,21.64
2022-10-26T13:56:00.783Z,21.64
2022-10-26T13:58:46.180Z,21.50
2022-10-26T14:01:17.095Z,21.49
2022-10-26T14:03:44.454Z,21.50
2022-10-26T14:06:17.986Z,21.31
2022-10-26T14:08:47.483Z,21.44
2022-10-26T14:11:18.292Z,21.29
2022-10-26T14:13:47.820Z,21.33
2022-10-26T14:16:19.248Z,21.21
2022-10-26T14:18:48.803Z,21.00
2022-10-26T14:21:20.522Z,21.07
2022-10-26T14:23:47.367Z,20.97
2022-10-26T14:26:22.838Z,20.99
2022-10-26T14:28:53.439Z,21.19
2022-10-26T14:31:25.185Z,20.97
2022-10-26T14:33:53.337Z,20.93
2022-10-26T14:36:25.987Z,21.00
2022-10-26T14:38:58.906Z,21.04
2022-10-26T14:41:26.755Z,21.04
2022-10-26T14:43:56.334Z,20.84
2022-10-26T14:46:23.399Z,20.99
2022-10-26T14:49:02.380Z,21.01
2022-10-26T14:51:31.034Z,20.77
2022-10-26T14:54:01.009Z,20.78
2022-10-26T14:56:38.284Z,20.79
2022-10-26T14:59:31.598Z,20.74
2022-10-26T15:02:19.618Z,20.74
2022-10-26T15:05:02.273Z,20.85
2022-10-26T15:07:37.702Z,20.64
2022-10-26T15:10:05.931Z,20.60
2022-10-26T15:12:37.855Z,20.44
2022-10-26T15:15:17.743Z,20.58
2022-10-26T15:17:54.361Z,20.61
2022-10-26T15:20:23.002Z,20.54
2022-10-26T15:22:58.696Z,20.51
2022-10-26T15:25:28.479Z,20.55
2022-10-26T15:27:55.326Z,20.51
2022-10-26T15:30:27.451Z,20.61
2022-10-26T15:32:55.485Z,20.58
2022-10-26T15:35:25.021Z,20.60
2022-10-26T15:37:53.591Z,20.55
2022-10-26T15:40:20.537Z,20.47
2022-10-26T15:42:55.338Z,20.47
2022-10-26T15:45:28.397Z,20.33
2022-10-26T15:47:57.738Z,20.30
2022-10-26T15:50:27.567Z,20.26
2022-10-26T15:53:01.650Z,20.19
2022-10-26T15:55:30.250Z,20.11
2022-10-26T15:57:56.842Z,20.02
2022-10-26T16:00:23.492Z,19.95
2022-10-26T16:02:50.095Z,19.87
2022-10-26T16:05:17.526Z,19.75
2022-10-26T16:07:46.932Z,19.73
2022-10-26T16:10:24.823Z,19.63
2022-10-26T16:12:51.932Z,19.44
2022-10-26T16:15:24.620Z,19.36
2022-10-26T16:17:51.978Z,19.30
2022-10-26T16:20:24.948Z,19.24
2022-10-26T16:22:53.180Z,19.16
2022-10-26T16:25:24.586Z,19.09
2022-10-26T16:27:52.805Z,18.97
2022-10-26T16:30:19.929Z,18.82
2022-10-26T16:32:47.322Z,18.70
2022-10-26T16:35:14.219Z,18.57
2022-10-26T16:37:40.938Z,18.48
2022-10-26T16:40:08.682Z,18.40
2022-10-26T16:42:35.768Z,18.39
2022-10-26T16:45:03.317Z,18.31
2022-10-26T16:47:35.548Z,18.26
2022-10-26T16:50:04.406Z,18.14
2022-10-26T16:52:31.078Z,18.01
2022-10-26T16:54:57.696Z,17.98
2022-10-26T16:57:24.234Z,17.93
2022-10-26T16:59:50.907Z,17.88
2022-10-26T17:02:26.225Z,17.83
2022-10-26T17:04:55.222Z,17.75
2022-10-26T17:07:21.764Z,17.75
2022-10-26T17:09:48.321Z,17.74
2022-10-26T17:12:14.880Z,17.71
2022-10-26T17:14:41.434Z,17.61
2022-10-26T17:17:08.057Z,17.46
2022-10-26T17:19:34.563Z,17.47
2022-10-26T17:22:03.759Z,17.31
2022-10-26T17:24:32.952Z,17.24
2022-10-26T17:26:59.699Z,17.27
2022-10-26T17:29:32.355Z,17.21
2022-10-26T17:31:58.922Z,17.05
2022-10-26T17:34:28.369Z,17.03
2022-10-26T17:36:54.881Z,16.96
2022-10-26T17:39:21.519Z,16.81
2022-10-26T17:41:48.085Z,16.64
2022-10-26T17:44:15.787Z,16.67
2022-10-26T17:46:42.483Z,16.62
2022-10-26T17:49:09.022Z,16.51
2022-10-26T17:51:35.905Z,16.43
2022-10-26T17:54:02.549Z,16.53
2022-10-26T17:56:32.054Z,16.45
2022-10-26T17:58:59.717Z,16.41
2022-10-26T18:01:27.310Z,16.46
2022-10-26T18:03:54.282Z,16.35
2022-10-26T18:06:21.626Z,16.26
2022-10-26T18:08:48.217Z,16.23
2022-10-26T18:11:25.386Z,16.29
2022-10-26T18:13:57.278Z,16.27
2022-10-26T18:16:25.734Z,16.27
2022-10-26T18:19:01.820Z,16.11
2022-10-26T18:21:31.730Z,16.02
2022-10-26T18:23:58.612Z,16.02
2022-10-26T18:26:28.504Z,16.05
2022-10-26T18:28:59.582Z,16.01
2022-10-26T18:31:27.740Z,15.99
2022-10-26T18:33:58.875Z,15.97
2022-10-26T18:36:42.037Z,15.88
2022-10-26T18:39:15.752Z,15.60
2022-10-26T18:41:42.284Z,15.81
2022-10-26T18:44:08.999Z,15.82
2022-10-26T18:46:45.429Z,15.79
2022-10-26T18:49:13.934Z,15.79
2022-10-26T18:51:40.607Z,15.61
2022-10-26T18:54:07.166Z,15.50
2022-10-26T18:56:34.011Z,15.55
2022-10-26T18:59:01.015Z,15.52
2022-10-26T19:01:30.569Z,15.35
2022-10-26T19:04:01.726Z,15.44
2022-10-26T19:06:31.191Z,15.47
2022-10-26T19:08:58.326Z,15.39
2022-10-26T19:11:27.042Z,15.38
2022-10-26T19:13:54.144Z,15.34
2022-10-26T19:16:44.018Z,15.21
2022-10-26T19:19:10.576Z,15.24
2022-10-26T19:21:37.499Z,15.22
2022-10-26T19:24:04.608Z,15.01
2022-10-26T19:26:37.735Z,15.10
2022-10-26T19:29:07.663Z,15.10
2022-10-26T19:31:38.276Z,15.16
2022-10-26T19:34:05.934Z,15.03
2022-10-26T19:36:32.597Z,15.12
2022-10-26T19:38:59.260Z,15.11
2022-10-26T19:41:31.199Z,15.13
2022-10-26T19:46:32.764Z,15.04
2022-10-26T19:49:02.305Z,15.01
2022-10-26T19:51:30.457Z,14.98
2022-10-26T19:54:02.220Z,15.00
2022-10-26T19:56:30.949Z,15.03
2022-10-26T19:58:57.580Z,15.09
2022-10-26T20:01:24.271Z,15.07
2022-10-26T20:03:51.360Z,15.01
2022-10-26T20:06:18.332Z,14.97
2022-10-26T20:08:47.421Z,15.00
2022-10-26T20:11:15.760Z,15.02
2022-10-26T20:13:43.846Z,14.95
2022-10-26T20:16:11.807Z,14.97
2022-10-26T20:18:41.196Z,14.95
2022-10-26T20:21:11.541Z,14.86
2022-10-26T20:23:38.290Z,14.78
2022-10-26T20:28:32.668Z,14.77
2022-10-26T20:31:02.013Z,14.68
2022-10-26T20:33:29.349Z,14.62
2022-10-26T20:35:59.456Z,14.68
2022-10-26T20:38:26.710Z,14.68
2022-10-26T20:40:56.357Z,14.63
2022-10-26T20:43:23.527Z,14.54
2022-10-26T20:45:51.348Z,14.55
2022-10-26T20:48:19.069Z,14.40
2022-10-26T20:50:56.818Z,14.42
2022-10-26T20:53:28.637Z,14.45
2022-10-26T20:56:01.317Z,14.47
2022-10-26T20:59:12.395Z,14.50
2022-10-26T21:01:39.005Z,14.48
2022-10-26T21:04:05.605Z,14.50
2022-10-26T21:06:39.862Z,14.50
2022-10-26T21:09:08.290Z,14.49
2022-10-26T21:11:34.878Z,14.55
2022-10-26T21:14:03.220Z,14.51
2022-10-26T21:16:29.907Z,14.47
2022-10-26T21:18:56.581Z,14.46
2022-10-26T21:21:23.090Z,14.42
2022-10-26T21:23:50.028Z,14.41
2022-10-26T21:26:16.562Z,14.39
2022-10-26T21:28:47.486Z,14.45
2022-10-26T21:31:16.918Z,14.50
2022-10-26T21:33:45.577Z,14.41
2022-10-26T21:36:12.711Z,14.39
2022-10-26T21:38:41.151Z,14.31
2022-10-26T21:41:10.513Z,14.29
2022-10-26T21:43:38.872Z,14.31
2022-10-26T21:46:06.446Z,14.26
2022-10-26T21:48:34.088Z,14.21
2022-10-26T21:51:11.440Z,14.33
2022-10-26T21:53:38.182Z,14.33
2022-10-26T21:56:10.528Z,14.30
2022-10-26T21:58:37.092Z,14.13
2022-10-26T22:01:12.291Z,14.13
2022-10-26T22:03:40.424Z,14.18
2022-10-26T22:06:08.551Z,14.11
2022-10-26T22:08:36.399Z,14.03
2022-10-26T22:11:15.762Z,14.06
2022-10-26T22:13:42.838Z,14.01
2022-10-26T22:16:12.662Z,13.92
2022-10-26T22:18:41.076Z,13.97
2022-10-26T22:21:08.313Z,13.92
2022-10-26T22:23:36.510Z,13.97
2022-10-26T22:26:08.644Z,14.00
2022-10-26T22:28:42.488Z,14.04
2022-10-26T22:31:19.172Z,14.02
2022-10-26T22:33:45.966Z,13.91
2022-10-26T22:36:22.479Z,13.96
2022-10-26T22:38:58.401Z,13.91
2022-10-26T22:41:59.014Z,13.85
2022-10-26T22:44:36.981Z,13.83
2022-10-26T22:47:03.742Z,13.81
2022-10-26T22:49:30.366Z,13.69
2022-10-26T22:51:57.203Z,13.79
2022-10-26T22:54:23.828Z,13.74
2022-10-26T22:56:50.409Z,13.65
2022-10-26T22:59:16.996Z,13.63
2022-10-26T23:01:43.610Z,13.59
2022-10-26T23:04:12.679Z,13.58
2022-10-26T23:06:39.728Z,13.57
2022-10-26T23:09:07.093Z,13.67
2022-10-26T23:11:34.006Z,13.66
2022-10-26T23:14:02.731Z,13.64
2022-10-26T23:16:30.240Z,13.68
2022-10-26T23:18:58.319Z,13.64
2022-10-26T23:23:57.272Z,13.77
2022-10-26T23:26:24.181Z,13.66
2022-10-26T23:28:50.766Z,13.66
2022-10-26T23:31:19.445Z,13.56
2022-10-26T23:33:46.674Z,13.62
2022-10-26T23:36:13.418Z,13.61
2022-10-26T23:38:40.085Z,13.57
2022-10-26T23:41:09.416Z,13.62
2022-10-26T23:43:38.849Z,13.59
2022-10-26T23:46:05.582Z,13.62
2022-10-26T23:48:32.205Z,13.60
2022-10-26T23:50:58.729Z,13.55
2022-10-26T23:53:25.717Z,13.51
2022-10-26T23:55:52.645Z,13.51
2022-10-26T23:58:19.682Z,13.51
